Time;durP1;ratioP1;P1;durP2;ratioP2;P2;SDS_P1;SDS_P2;PMS_P1;PMS_P2;Temp;Humidity;BMP_temperature;BMP_pressure;BME280_temperature;BME280_humidity;BME280_pressure;Samples;Min_cycle;Max_cycle;Signal;HPM_P1;HPM_P2
2023/06/06 00:01:23;;;;;;;;;12.75;9.00;;;;;20.53;48.00;101423.47;5035866;28;46313;-51
2023/06/06 00:03:48;;;;;;;;;8.25;7.75;;;;;20.51;48.41;101426.34;5035863;28;45862;-50
2023/06/06 00:06:16;;;;;;;;;10.75;8.00;;;;;20.49;48.33;101427.59;5035628;28;45370;-53
2023/06/06 00:08:42;;;;;;;;;8.50;7.00;;;;;20.46;48.12;101431.50;5035984;28;45422;-52
2023/06/06 00:11:09;;;;;;;;;10.50;9.00;;;;;20.45;48.39;101435.22;5035423;28;46367;-51
2023/06/06 00:13:35;;;;;;;;;6.75;6.75;;;;;20.41;48.59;101420.44;5035074;28;45459;-52
2023/06/06 00:16:03;;;;;;;;;6.25;6.25;;;;;20.37;48.33;101421.84;5035503;28;45391;-55
2023/06/06 00:18:28;;;;;;;;;8.75;8.50;;;;;20.34;48.26;101427.63;5035852;28;45270;-52
2023/06/06 00:20:54;;;;;;;;;8.00;7.50;;;;;20.25;48.83;101413.44;5034519;28;45411;-54
2023/06/06 00:23:21;;;;;;;;;11.00;10.25;;;;;20.26;48.26;101423.19;5035472;28;45464;-56
2023/06/06 00:25:48;;;;;;;;;10.25;7.50;;;;;20.23;48.71;101433.59;5035323;28;45314;-56
2023/06/06 00:28:13;;;;;;;;;9.50;7.75;;;;;20.19;48.75;101416.91;5035525;28;45381;-51
2023/06/06 00:30:38;;;;;;;;;11.75;9.75;;;;;20.16;48.68;101422.69;5034913;28;50648;-54
2023/06/06 00:33:04;;;;;;;;;11.25;9.00;;;;;20.14;48.82;101422.03;5035518;28;45397;-51
2023/06/06 00:35:29;;;;;;;;;13.00;9.00;;;;;20.11;49.01;101422.44;5035404;28;45410;-53
2023/06/06 00:37:55;;;;;;;;;13.25;9.00;;;;;20.07;48.91;101427.41;5035403;28;45334;-50
2023/06/06 00:40:20;;;;;;;;;10.25;9.00;;;;;20.03;49.21;101425.28;5034949;28;46257;-51
2023/06/06 00:42:45;;;;;;;;;13.25;11.00;;;;;19.96;49.04;101408.16;5035222;28;45512;-52
2023/06/06 00:45:11;;;;;;;;;13.00;8.00;;;;;19.95;49.13;101418.13;5035227;28;45423;-51
2023/06/06 00:47:37;;;;;;;;;10.50;9.25;;;;;19.89;49.34;101410.81;5037046;28;45590;-52
2023/06/06 00:50:03;;;;;;;;;10.75;7.25;;;;;19.85;49.26;101409.53;5038651;28;45385;-54
2023/06/06 00:52:30;;;;;;;;;10.00;8.25;;;;;19.83;49.59;101409.69;5038571;28;45318;-50
2023/06/06 00:54:56;;;;;;;;;14.00;9.75;;;;;19.81;49.25;101413.63;5038582;28;45962;-51
2023/06/06 00:57:23;;;;;;;;;10.00;7.25;;;;;19.77;49.05;101406.94;5038876;28;45390;-52
2023/06/06 00:59:49;;;;;;;;;17.00;8.00;;;;;19.74;49.33;101407.31;5037396;28;45378;-50
2023/06/06 01:02:17;;;;;;;;;12.50;9.25;;;;;19.72;49.36;101406.66;5038115;28;45576;-46
2023/06/06 01:04:44;;;;;;;;;13.00;9.75;;;;;19.69;49.21;101415.97;5038349;28;45262;-50
2023/06/06 01:07:12;;;;;;;;;11.75;9.00;;;;;19.57;49.69;101394.00;5038461;28;45462;-51
2023/06/06 01:09:41;;;;;;;;;12.75;7.50;;;;;19.59;49.82;101405.47;5038087;28;45398;-51
2023/06/06 01:12:37;;;;;;;;;10.25;6.50;;;;;19.53;49.37;101410.78;5038199;28;45370;-48
2023/06/06 01:15:18;;;;;;;;;9.50;7.75;;;;;19.49;49.34;101402.22;5038255;28;45484;-53
2023/06/06 01:17:46;;;;;;;;;9.75;6.75;;;;;19.44;49.62;101399.25;5038248;28;45355;-51
2023/06/06 01:20:13;;;;;;;;;12.75;10.00;;;;;19.40;50.01;101395.25;5037901;28;46179;-45
2023/06/06 01:22:39;;;;;;;;;11.00;9.67;;;;;19.36;50.25;101404.75;5037951;28;45394;-51
2023/06/06 01:25:08;;;;;;;;;10.00;10.00;;;;;19.33;50.06;101394.31;5038131;28;45403;-50
2023/06/06 01:27:34;;;;;;;;;11.75;7.25;;;;;19.31;50.30;101401.78;5038173;28;45406;-47
2023/06/06 01:30:01;;;;;;;;;11.33;8.67;;;;;19.25;50.38;101395.25;5037368;28;46175;-45
2023/06/06 01:32:40;;;;;;;;;15.50;11.25;;;;;19.23;50.06;101400.03;5038105;28;45343;-49
2023/06/06 01:35:17;;;;;;;;;14.00;10.50;;;;;19.19;50.32;101399.56;5038286;28;45477;-47
2023/06/06 01:38:19;;;;;;;;;11.00;10.00;;;;;19.14;50.04;101402.00;5037941;28;45398;-47
2023/06/06 01:40:48;;;;;;;;;13.67;9.00;;;;;19.09;51.07;101395.50;5037726;28;46300;-49
2023/06/06 01:43:16;;;;;;;;;13.00;10.00;;;;;19.01;50.60;101390.19;5037742;28;45363;-50
2023/06/06 01:45:43;;;;;;;;;13.67;10.33;;;;;18.88;50.88;101380.88;5037898;28;45290;-45
2023/06/06 01:48:09;;;;;;;;;14.00;9.33;;;;;18.97;51.11;101392.41;5038007;28;45439;-46
2023/06/06 01:50:35;;;;;;;;;15.00;11.67;;;;;18.94;51.54;101404.41;5037543;28;46033;-48
2023/06/06 01:53:00;;;;;;;;;17.00;11.33;;;;;18.88;51.20;101390.84;5019780;28;45354;-51
2023/06/06 01:55:26;;;;;;;;;11.25;8.75;;;;;18.88;51.51;101397.06;5037485;28;45409;-48
2023/06/06 01:57:51;;;;;;;;;10.33;9.67;;;;;18.88;51.25;101390.84;5037871;28;45562;-47
2023/06/06 02:00:17;;;;;;;;;14.67;10.67;;;;;18.84;51.58;101394.94;5037135;28;45370;-46
2023/06/06 02:02:43;;;;;;;;;12.00;7.67;;;;;18.76;51.54;101376.16;5037604;28;45429;-46
2023/06/06 02:05:09;;;;;;;;;14.00;11.00;;;;;18.80;51.49;101382.84;5037399;28;45483;-48
2023/06/06 02:07:34;;;;;;;;;12.33;9.00;;;;;18.79;51.70;101384.66;5037376;28;45565;-52
2023/06/06 02:10:01;;;;;;;;;17.33;13.33;;;;;18.72;51.41;101386.44;5037158;28;46334;-45
2023/06/06 02:12:26;;;;;;;;;14.00;11.67;;;;;18.72;51.61;101386.44;5037383;28;45404;-48
2023/06/06 02:14:54;;;;;;;;;15.67;13.00;;;;;18.58;51.83;101361.13;5037305;28;45771;-46
2023/06/06 02:17:19;;;;;;;;;14.25;9.75;;;;;18.73;51.94;101395.38;5037113;28;45330;-50
2023/06/06 02:19:45;;;;;;;;;17.00;11.00;;;;;18.72;51.67;101391.84;5036366;28;45300;-51
2023/06/06 02:22:10;;;;;;;;;14.33;12.00;;;;;18.69;51.84;101386.78;5037052;28;45406;-47
2023/06/06 02:24:36;;;;;;;;;16.00;12.67;;;;;18.67;51.75;101397.75;5036262;28;45421;-51
2023/06/06 02:27:02;;;;;;;;;15.33;13.33;;;;;18.61;51.96;101395.78;5037037;28;45443;-47
2023/06/06 02:29:27;;;;;;;;;14.67;10.67;;;;;18.58;51.92;101404.25;5036525;28;47100;-51
2023/06/06 02:31:53;;;;;;;;;12.67;11.33;;;;;18.56;52.02;101397.34;5036645;28;45385;-48
2023/06/06 02:34:18;;;;;;;;;17.67;9.00;;;;;18.52;52.08;101402.28;5036743;28;45442;-47
2023/06/06 02:36:44;;;;;;;;;14.00;11.33;;;;;18.49;52.12;101391.84;5036968;28;45452;-51
2023/06/06 02:39:09;;;;;;;;;11.67;11.00;;;;;18.52;52.21;101404.13;5036804;28;46158;-45
2023/06/06 02:41:34;;;;;;;;;9.67;6.00;;;;;18.52;52.25;101404.13;5037028;28;45338;-45
2023/06/06 02:44:00;;;;;;;;;10.33;10.33;;;;;18.49;52.40;101399.94;5036817;28;45772;-44
2023/06/06 02:46:25;;;;;;;;;12.00;12.00;;;;;18.46;52.51;101397.63;5036559;28;45574;-44
2023/06/06 02:48:52;;;;;;;;;12.67;10.33;;;;;18.43;52.44;101392.59;5036396;28;46017;-47
2023/06/06 02:51:20;;;;;;;;;19.33;14.00;;;;;18.41;52.50;101390.09;5036684;28;45276;-46
2023/06/06 02:53:46;;;;;;;;;15.67;14.00;;;;;18.39;52.15;101386.72;5035984;28;45353;-46
2023/06/06 02:56:14;;;;;;;;;21.33;9.00;;;;;18.36;52.51;101388.94;5036748;28;45361;-45
2023/06/06 02:58:40;;;;;;;;;14.67;11.33;;;;;18.29;52.49;101379.94;5036470;28;46162;-45
2023/06/06 03:01:06;;;;;;;;;14.00;13.33;;;;;18.29;52.40;101383.47;5036418;28;45482;-44
2023/06/06 03:03:39;;;;;;;;;16.33;10.67;;;;;18.26;52.50;101389.22;5036470;28;45425;-44
2023/06/06 03:06:06;;;;;;;;;14.00;12.67;;;;;18.20;52.84;101381.84;5036786;28;45311;-45
2023/06/06 03:08:32;;;;;;;;;16.00;13.00;;;;;18.18;52.49;101382.03;5036339;28;46576;-47
2023/06/06 03:10:58;;;;;;;;;12.67;10.33;;;;;18.11;52.97;101382.94;5035626;28;45207;-44
2023/06/06 03:13:23;;;;;;;;;12.00;12.00;;;;;18.10;52.92;101389.34;5036322;28;45361;-49
2023/06/06 03:15:48;;;;;;;;;15.67;12.33;;;;;18.08;53.25;101388.69;5036523;28;45292;-44
2023/06/06 03:18:18;;;;;;;;;19.67;13.67;;;;;18.04;53.17;101385.53;5036062;28;46134;-46
2023/06/06 03:20:45;;;;;;;;;14.67;11.00;;;;;17.90;53.14;101365.59;5036210;28;45394;-46
2023/06/06 03:23:11;;;;;;;;;17.67;13.00;;;;;18.00;53.34;101386.06;5036155;28;45410;-44
2023/06/06 03:25:39;;;;;;;;;20.33;13.00;;;;;17.94;52.91;101379.53;5036311;28;45355;-48
2023/06/06 03:28:04;;;;;;;;;13.00;10.00;;;;;17.90;53.50;101386.28;5036046;28;45370;-45
2023/06/06 03:30:29;;;;;;;;;13.67;11.33;;;;;17.84;53.73;101382.47;5036015;28;45455;-44
2023/06/06 03:32:55;;;;;;;;;14.33;12.33;;;;;17.81;53.71;101388.19;5036023;28;45355;-46
2023/06/06 03:35:21;;;;;;;;;18.33;13.00;;;;;17.77;53.63;101386.03;5036086;28;45444;-46
2023/06/06 03:37:47;;;;;;;;;19.00;13.00;;;;;17.70;53.94;101381.34;5035906;28;46034;-45
2023/06/06 03:40:12;;;;;;;;;17.33;14.67;;;;;17.65;53.76;101382.88;5035585;28;45318;-45
2023/06/06 03:42:39;;;;;;;;;20.67;17.00;;;;;17.64;54.12;101387.44;5036026;28;45451;-53
2023/06/06 03:45:05;;;;;;;;;13.33;13.33;;;;;17.54;54.25;101377.91;5036164;28;45526;-47
2023/06/06 03:47:30;;;;;;;;;13.67;13.00;;;;;17.56;53.85;101390.16;5035390;28;46868;-49
2023/06/06 03:49:56;;;;;;;;;14.67;12.67;;;;;17.54;54.03;101396.75;5035716;28;45203;-46
2023/06/06 03:52:22;;;;;;;;;25.33;17.33;;;;;17.52;54.48;101394.22;5035762;28;45326;-45
2023/06/06 03:54:48;;;;;;;;;15.67;13.33;;;;;17.51;54.57;101403.31;5035891;28;45202;-46
2023/06/06 03:57:13;;;;;;;;;20.00;15.00;;;;;17.51;54.44;101391.72;5035429;28;45949;-53
2023/06/06 03:59:39;;;;;;;;;22.00;15.33;;;;;17.46;54.26;101390.38;5035659;28;45343;-48
2023/06/06 04:02:05;;;;;;;;;16.67;14.33;;;;;17.46;54.47;101394.94;5035556;28;45405;-52
2023/06/06 04:04:32;;;;;;;;;18.00;13.33;;;;;17.44;54.58;101397.81;5035670;28;45326;-47
2023/06/06 04:06:58;;;;;;;;;16.33;13.33;;;;;17.40;54.66;101390.25;5035169;28;46444;-47
2023/06/06 04:09:23;;;;;;;;;20.33;15.00;;;;;17.43;54.73;101396.13;5035400;28;45388;-48
2023/06/06 04:11:49;;;;;;;;;19.00;16.67;;;;;17.35;54.90;101393.47;5035532;28;45282;-47
2023/06/06 04:14:14;;;;;;;;;16.33;15.00;;;;;17.39;54.96;101399.34;5035547;28;45410;-47
2023/06/06 04:16:40;;;;;;;;;15.67;14.00;;;;;17.37;54.94;101404.06;5035194;28;46263;-45
2023/06/06 04:19:06;;;;;;;;;21.00;16.33;;;;;17.38;54.80;101403.88;5035372;28;45302;-46
2023/06/06 04:21:32;;;;;;;;;22.67;15.00;;;;;17.36;54.79;101403.22;5036365;28;45311;-45
2023/06/06 04:23:57;;;;;;;;;18.33;13.67;;;;;17.37;54.72;101402.22;5039258;28;45233;-51
2023/06/06 04:26:24;;;;;;;;;17.00;16.00;;;;;17.10;55.12;101355.09;5038932;28;45334;-49
2023/06/06 04:28:53;;;;;;;;;23.67;19.00;;;;;17.39;55.01;101396.66;5039019;28;45180;-53
2023/06/06 04:31:22;;;;;;;;;23.33;18.67;;;;;17.41;54.64;101406.22;5038828;28;45470;-46
2023/06/06 04:33:52;;;;;;;;;24.33;19.33;;;;;17.41;54.71;101400.00;5039540;28;45461;-50
2023/06/06 04:36:19;;;;;;;;;23.67;19.33;;;;;17.35;54.53;101389.94;5038686;28;46728;-48
2023/06/06 04:38:46;;;;;;;;;20.00;16.33;;;;;17.36;55.46;101399.69;5021147;28;45445;-51
2023/06/06 04:41:12;;;;;;;;;24.00;20.00;;;;;17.36;55.12;101394.28;5038714;28;45247;-47
2023/06/06 04:43:38;;;;;;;;;27.67;20.33;;;;;17.30;55.13;101390.47;5038790;28;45452;-49
2023/06/06 04:46:04;;;;;;;;;24.33;22.00;;;;;17.36;55.16;101407.75;5038455;28;46497;-48
2023/06/06 04:48:30;;;;;;;;;28.00;22.33;;;;;17.23;54.65;101389.47;5038396;28;45796;-52
2023/06/06 04:50:56;;;;;;;;;27.33;20.00;;;;;17.32;55.10;101409.09;5038653;28;45418;-47
2023/06/06 04:53:21;;;;;;;;;28.00;24.67;;;;;17.33;55.29;101405.41;5038765;28;45422;-51
2023/06/06 04:55:47;;;;;;;;;28.33;20.67;;;;;17.32;55.32;101398.34;5038481;28;46196;-44
2023/06/06 04:58:14;;;;;;;;;24.67;24.33;;;;;17.31;55.39;101402.88;5037223;28;45888;-52
2023/06/06 05:00:42;;;;;;;;;26.33;24.33;;;;;17.34;55.54;101404.41;5038420;28;45331;-46
2023/06/06 05:03:08;;;;;;;;;25.67;23.67;;;;;17.34;55.41;101410.63;5038368;28;45412;-45
2023/06/06 05:05:33;;;;;;;;;24.67;20.00;;;;;17.39;55.18;101399.34;5037915;28;50235;-45
2023/06/06 05:07:59;;;;;;;;;30.33;24.00;;;;;17.45;55.41;101404.84;5038392;28;45338;-53
2023/06/06 05:10:24;;;;;;;;;32.00;26.00;;;;;17.48;55.04;101403.66;5038245;28;45372;-51
2023/06/06 05:12:50;;;;;;;;;29.33;21.00;;;;;17.51;55.29;101411.38;5038463;28;45275;-52
2023/06/06 05:15:15;;;;;;;;;33.00;25.00;;;;;17.56;54.80;101400.09;5037878;28;51840;-53
2023/06/06 05:17:55;;;;;;;;;28.67;22.67;;;;;17.60;54.98;101404.94;5038167;28;45382;-53
2023/06/06 05:20:23;;;;;;;;;28.33;23.00;;;;;17.60;54.90;101402.25;5038082;28;45388;-53
2023/06/06 05:22:49;;;;;;;;;26.67;21.00;;;;;17.70;54.92;101410.94;5038239;28;45409;-50
2023/06/06 05:25:15;;;;;;;;;36.00;29.67;;;;;17.66;54.91;101398.03;5036685;28;46234;-50
2023/06/06 05:27:40;;;;;;;;;25.67;21.00;;;;;17.75;54.89;101404.22;5037543;28;45323;-53
2023/06/06 05:30:06;;;;;;;;;28.67;21.33;;;;;17.73;54.62;101401.66;5037603;28;45374;-48
2023/06/06 05:32:32;;;;;;;;;37.67;24.00;;;;;17.72;54.69;101400.00;5036450;28;45445;-50
2023/06/06 05:34:58;;;;;;;;;36.00;27.33;;;;;17.71;54.85;101409.94;5037374;28;46102;-48
2023/06/06 05:37:23;;;;;;;;;32.33;26.33;;;;;17.57;55.12;101385.63;5037976;28;45424;-46
2023/06/06 05:39:48;;;;;;;;;34.00;26.33;;;;;17.67;55.27;101405.91;5037858;28;45994;-49
2023/06/06 05:42:14;;;;;;;;;29.00;25.67;;;;;17.69;55.11;101408.41;5037843;28;45317;-47
2023/06/06 05:44:39;;;;;;;;;50.67;37.67;;;;;17.73;54.86;101404.34;5037507;28;45342;-43
2023/06/06 05:47:05;;;;;;;;;33.33;27.00;;;;;17.75;54.79;101415.81;5037291;28;45329;-49
2023/06/06 05:49:31;;;;;;;;;35.33;24.33;;;;;17.76;54.77;101404.03;5037555;28;45363;-43
2023/06/06 05:51:56;;;;;;;;;32.33;30.33;;;;;17.79;54.66;101406.38;5037691;28;45226;-52
2023/06/06 05:54:22;;;;;;;;;29.33;20.33;;;;;17.85;54.85;101412.91;5037093;28;45317;-44
2023/06/06 05:56:47;;;;;;;;;31.33;26.00;;;;;17.85;54.69;101412.91;5037024;28;45810;-56
2023/06/06 05:59:13;;;;;;;;;31.00;24.33;;;;;17.95;54.65;101422.44;5037474;28;45684;-43
2023/06/06 06:01:42;;;;;;;;;32.33;27.00;;;;;18.01;54.83;101418.19;5037731;28;45321;-51
2023/06/06 06:04:07;;;;;;;;;28.67;24.67;;;;;18.06;54.60;101413.09;5037242;28;46102;-47
2023/06/06 06:06:34;;;;;;;;;27.00;23.33;;;;;18.10;54.32;101400.94;5037420;28;45375;-44
2023/06/06 06:09:02;;;;;;;;;33.33;27.67;;;;;18.19;53.92;101410.63;5019806;28;45487;-50
2023/06/06 06:11:27;;;;;;;;;35.33;27.67;;;;;18.18;54.11;101410.81;5037510;28;45329;-52
2023/06/06 06:13:52;;;;;;;;;33.00;28.00;;;;;18.25;53.87;101417.16;5036383;28;45703;-48
2023/06/06 06:16:18;;;;;;;;;33.00;31.67;;;;;18.26;53.58;101409.91;5037150;28;45938;-51
2023/06/06 06:18:43;;;;;;;;;30.67;26.00;;;;;18.34;53.81;101417.94;5037212;28;45346;-46
2023/06/06 06:21:08;;;;;;;;;40.67;28.00;;;;;18.39;53.75;101413.66;5037453;28;45332;-46
2023/06/06 06:23:34;;;;;;;;;32.33;28.00;;;;;18.45;53.41;101425.56;5037054;28;46596;-47
2023/06/06 06:25:59;;;;;;;;;29.67;23.67;;;;;18.52;53.52;101409.53;5036730;28;45432;-50
2023/06/06 06:28:25;;;;;;;;;34.00;29.00;;;;;18.59;53.67;101411.31;5037407;28;45254;-51
2023/06/06 06:30:50;;;;;;;;;31.00;23.67;;;;;18.68;53.01;101420.16;5037059;28;45377;-52
2023/06/06 06:33:16;;;;;;;;;30.00;25.67;;;;;19.10;52.58;101416.03;5036844;28;46241;-49
2023/06/06 06:35:42;;;;;;;;;31.67;29.00;;;;;20.34;50.34;101403.31;5037154;28;45363;-48
2023/06/06 06:38:08;;;;;;;;;32.00;28.67;;;;;21.30;48.28;101404.41;5037075;28;45393;-45
2023/06/06 06:40:33;;;;;;;;;30.00;24.33;;;;;22.03;46.88;101414.66;5037231;28;45476;-48
2023/06/06 06:42:59;;;;;;;;;34.00;26.00;;;;;22.83;45.23;101412.81;5036498;28;47146;-52
2023/06/06 06:45:26;;;;;;;;;31.00;25.00;;;;;23.61;43.25;101413.63;5035933;28;45314;-46
2023/06/06 06:47:52;;;;;;;;;36.33;25.00;;;;;24.37;41.83;101414.63;5036793;28;45233;-50
2023/06/06 06:50:17;;;;;;;;;33.00;27.00;;;;;25.01;40.79;101401.69;5036900;28;45353;-48
2023/06/06 06:52:43;;;;;;;;;37.00;29.00;;;;;25.51;39.17;101409.72;5036641;28;46140;-52
2023/06/06 06:55:09;;;;;;;;;31.25;25.25;;;;;25.94;38.66;101381.47;5035917;28;45362;-44
2023/06/06 06:57:36;;;;;;;;;29.00;23.75;;;;;25.54;39.21;101401.91;5036981;28;45778;-45
2023/06/06 07:00:13;;;;;;;;;30.50;25.50;;;;;24.34;40.64;101409.63;5036841;28;45417;-48
2023/06/06 07:02:39;;;;;;;;;31.50;25.00;;;;;23.35;42.22;101414.56;5036529;28;47264;-45
2023/06/06 07:05:06;;;;;;;;;29.50;26.50;;;;;22.71;43.50;101422.63;5036434;28;45485;-48
2023/06/06 07:07:31;;;;;;;;;36.75;28.50;;;;;22.23;44.36;101417.44;5036427;28;45345;-50
2023/06/06 07:09:57;;;;;;;;;29.67;27.33;;;;;21.87;45.23;101424.00;5036743;28;45340;-47
2023/06/06 07:12:22;;;;;;;;;31.00;26.67;;;;;21.72;45.81;101423.34;5036489;28;46094;-51
2023/06/06 07:14:47;;;;;;;;;30.33;25.67;;;;;21.91;45.82;101417.13;5036218;28;45424;-51
2023/06/06 07:17:15;;;;;;;;;38.67;30.33;;;;;23.30;44.21;101424.41;5036532;28;45349;-47
2023/06/06 07:19:42;;;;;;;;;32.00;26.00;;;;;23.92;42.39;101405.75;5036401;28;45211;-52
2023/06/06 07:22:08;;;;;;;;;32.50;25.00;;;;;23.67;42.57;101411.94;5036290;28;45397;-46
2023/06/06 07:24:34;;;;;;;;;28.75;28.50;;;;;24.11;42.21;101408.34;5035911;28;45883;-47
2023/06/06 07:26:59;;;;;;;;;33.00;27.50;;;;;25.61;40.24;101412.72;5036247;28;45278;-48
2023/06/06 07:29:27;;;;;;;;;23.50;23.50;;;;;26.83;37.46;101401.38;5035630;28;45519;-51
2023/06/06 07:31:54;;;;;;;;;30.25;28.00;;;;;27.74;35.90;101398.94;5036233;28;46295;-50
2023/06/06 07:34:20;;;;;;;;;27.50;27.00;;;;;27.59;35.94;101405.72;5036266;28;45329;-51
2023/06/06 07:36:45;;;;;;;;;30.75;23.75;;;;;26.36;37.20;101409.53;5036481;28;45330;-51
2023/06/06 07:39:11;;;;;;;;;32.00;23.50;;;;;25.78;38.40;101402.03;5036488;28;45360;-50
2023/06/06 07:41:39;;;;;;;;;25.25;22.00;;;;;25.92;38.40;101384.44;5036265;28;45350;-51
2023/06/06 07:44:04;;;;;;;;;30.60;26.00;;;;;26.74;37.91;101403.63;5036171;28;45395;-48
2023/06/06 07:46:29;;;;;;;;;35.75;31.25;;;;;28.30;35.31;101403.47;5035941;28;45349;-52
2023/06/06 07:48:55;;;;;;;;;35.00;27.50;;;;;29.47;33.97;101396.09;5018162;28;45271;-50
2023/06/06 07:51:21;;;;;;;;;31.50;28.50;;;;;30.24;32.62;101396.91;5035850;28;46377;-51
2023/06/06 07:53:46;;;;;;;;;34.75;29.00;;;;;30.82;31.69;101395.13;5035855;28;45543;-52
2023/06/06 07:56:17;;;;;;;;;30.00;24.50;;;;;31.30;30.45;101395.91;5035840;28;45231;-52
2023/06/06 07:58:51;;;;;;;;;25.60;22.60;;;;;31.76;29.95;101396.84;5036147;28;45381;-52
2023/06/06 08:01:19;;;;;;;;;29.00;24.20;;;;;32.23;29.51;101397.75;5034899;28;45486;-48
2023/06/06 08:03:54;;;;;;;;;31.40;26.00;;;;;32.61;28.47;101392.78;5035616;28;45335;-46
2023/06/06 08:06:23;;;;;;;;;25.40;21.60;;;;;32.93;28.37;101390.50;5035692;28;45384;-52
2023/06/06 08:08:48;;;;;;;;;31.20;23.40;;;;;33.25;27.96;101387.34;5035816;28;45491;-51
2023/06/06 08:11:15;;;;;;;;;25.50;22.75;;;;;33.59;27.50;101385.81;5034794;28;45384;-52
2023/06/06 08:13:41;;;;;;;;;30.00;25.40;;;;;33.87;27.20;101387.00;5035593;28;45492;-52
2023/06/06 08:16:07;;;;;;;;;34.50;27.25;;;;;34.18;26.09;101382.91;5035905;28;45323;-51
2023/06/06 08:18:32;;;;;;;;;27.80;24.60;;;;;34.31;26.03;101375.88;5035777;28;45501;-50
2023/06/06 08:20:58;;;;;;;;;29.00;26.75;;;;;34.62;26.12;101384.69;5035176;28;46394;-49
2023/06/06 08:23:23;;;;;;;;;36.75;31.50;;;;;34.77;26.10;101389.25;5035464;28;45376;-52
2023/06/06 08:25:49;;;;;;;;;25.50;23.00;;;;;34.99;25.33;101394.28;5035227;28;46462;-52
2023/06/06 08:28:15;;;;;;;;;35.50;29.25;;;;;35.12;25.28;101376.13;5035782;28;45195;-53
2023/06/06 08:30:40;;;;;;;;;45.60;36.00;;;;;35.41;25.64;101392.63;5034952;28;45541;-50
2023/06/06 08:33:06;;;;;;;;;33.75;30.25;;;;;35.66;24.89;101389.50;5035640;28;45423;-51
2023/06/06 08:35:31;;;;;;;;;29.75;25.25;;;;;35.84;24.58;101390.59;5035344;28;45385;-42
2023/06/06 08:37:56;;;;;;;;;28.75;25.00;;;;;36.05;24.61;101393.88;5035741;28;45366;-53
2023/06/06 08:40:22;;;;;;;;;34.25;23.50;;;;;36.18;24.43;101389.50;5035060;28;47031;-50
2023/06/06 08:42:50;;;;;;;;;24.50;21.75;;;;;36.36;24.60;101398.88;5035371;28;45378;-51
2023/06/06 08:45:20;;;;;;;;;25.80;22.60;;;;;36.39;23.83;101388.03;5035293;28;45310;-51
2023/06/06 08:47:47;;;;;;;;;25.80;23.60;;;;;36.45;24.21;101397.09;5034729;28;45401;-52
2023/06/06 08:50:13;;;;;;;;;23.20;20.40;;;;;36.61;23.56;101394.84;5035093;28;46311;-53
2023/06/06 08:52:40;;;;;;;;;28.60;23.40;;;;;36.69;24.00;101402.47;5035138;28;45401;-54
2023/06/06 08:55:07;;;;;;;;;25.60;19.40;;;;;36.81;24.11;101391.69;5035446;28;45360;-45
2023/06/06 08:57:34;;;;;;;;;23.60;19.00;;;;;36.95;23.50;101394.47;5035187;28;45449;-47
2023/06/06 09:00:08;;;;;;;;;22.20;21.20;;;;;37.06;22.67;101393.16;5035083;28;47050;-45
2023/06/06 09:02:34;;;;;;;;;22.00;19.80;;;;;37.22;23.32;101390.88;5034909;28;45821;-46
2023/06/06 09:04:59;;;;;;;;;24.25;22.75;;;;;37.35;22.30;101395.56;5034950;28;45464;-46
2023/06/06 09:07:26;;;;;;;;;26.25;21.75;;;;;37.37;23.02;101401.59;5035807;28;45481;-49
2023/06/06 09:09:52;;;;;;;;;24.80;20.80;;;;;37.44;22.64;101390.13;5020437;28;45432;-51
2023/06/06 09:12:17;;;;;;;;;23.20;21.40;;;;;37.47;22.61;101391.47;5038495;28;45293;-52
2023/06/06 09:14:42;;;;;;;;;26.75;25.50;;;;;37.50;22.76;101396.38;5038703;28;45385;-53
2023/06/06 09:17:15;;;;;;;;;21.75;19.25;;;;;37.44;23.32;101381.78;5037515;28;45274;-52
2023/06/06 09:19:43;;;;;;;;;20.00;18.80;;;;;37.56;22.44;101390.41;5038138;28;46551;-54
2023/06/06 09:22:09;;;;;;;;;26.00;21.40;;;;;37.68;22.64;101390.66;5038378;28;45436;-52
2023/06/06 09:24:42;;;;;;;;;20.20;18.80;;;;;37.65;22.34;101393.25;5037507;28;45405;-52
2023/06/06 09:27:07;;;;;;;;;26.60;22.80;;;;;37.44;22.51;101387.34;5038673;28;45290;-52
2023/06/06 09:29:38;;;;;;;;;24.00;20.75;;;;;37.32;22.57;101390.63;5037914;28;46282;-52
2023/06/06 09:32:07;;;;;;;;;20.80;20.00;;;;;37.20;23.06;101382.03;5037827;28;45507;-53
2023/06/06 09:34:33;;;;;;;;;25.20;17.60;;;;;37.14;22.82;101386.06;5020368;28;45307;-53
2023/06/06 09:36:59;;;;;;;;;23.50;21.00;;;;;37.07;22.99;101380.09;5038306;28;45286;-51
2023/06/06 09:39:25;;;;;;;;;22.00;20.40;;;;;36.88;22.97;101375.47;5037631;28;46526;-45
2023/06/06 09:41:50;;;;;;;;;20.75;19.25;;;;;36.68;23.22;101371.16;5038036;28;45373;-45
2023/06/06 09:44:22;;;;;;;;;20.00;18.00;;;;;36.53;23.83;101381.69;5038261;28;46028;-45
2023/06/06 09:46:57;;;;;;;;;16.80;15.60;;;;;36.50;23.99;101376.78;5037951;28;45385;-47
2023/06/06 09:49:22;;;;;;;;;23.60;18.80;;;;;36.58;23.81;101365.00;5037700;28;45361;-45
2023/06/06 09:51:51;;;;;;;;;22.00;18.00;;;;;36.45;23.43;101372.16;5037671;28;45302;-45
2023/06/06 09:54:17;;;;;;;;;22.40;17.60;;;;;36.30;23.71;101369.66;5037672;28;45397;-51
2023/06/06 09:56:46;;;;;;;;;19.25;18.25;;;;;36.22;23.85;101363.66;5038058;28;45503;-42
2023/06/06 09:59:13;;;;;;;;;15.80;14.20;;;;;36.25;24.21;101362.25;5037604;28;46366;-44
2023/06/06 10:01:42;;;;;;;;;26.00;18.40;;;;;36.26;24.44;101369.44;5037562;28;45341;-42
2023/06/06 10:04:08;;;;;;;;;24.40;21.80;;;;;36.14;24.48;101356.06;5037703;28;45861;-45
2023/06/06 10:06:34;;;;;;;;;22.00;18.20;;;;;35.97;24.47;101364.94;5019549;28;45432;-44
2023/06/06 10:09:06;;;;;;;;;22.00;20.50;;;;;35.69;24.58;101363.16;5037357;28;45421;-48
2023/06/06 10:11:36;;;;;;;;;24.20;22.00;;;;;35.34;25.12;101359.78;5037578;28;45689;-45
2023/06/06 10:14:06;;;;;;;;;21.80;21.00;;;;;35.04;25.02;101355.50;5037356;28;45376;-43
2023/06/06 10:16:33;;;;;;;;;21.40;17.60;;;;;34.86;25.59;101356.25;5037678;28;45310;-44
2023/06/06 10:18:59;;;;;;;;;22.60;21.20;;;;;34.79;25.58;101356.59;5036075;28;46370;-44
2023/06/06 10:21:26;;;;;;;;;23.00;18.75;;;;;34.62;24.85;101359.84;5037265;28;45365;-52
2023/06/06 10:23:53;;;;;;;;;23.80;20.60;;;;;34.55;25.79;101351.06;5037575;28;45536;-45
2023/06/06 10:26:26;;;;;;;;;17.40;16.00;;;;;34.47;25.97;101359.97;5037453;28;45382;-45
2023/06/06 10:29:50;;;;;;;;;16.00;12.60;;;;;34.38;26.57;101356.19;5036869;28;46915;-43
2023/06/06 10:32:24;;;;;;;;;19.40;19.40;;;;;34.21;26.28;101362.16;4955818;28;45586;-43
2023/06/06 10:34:53;;;;;;;;;20.60;17.40;;;;;34.11;26.37;101349.28;4955939;28;45533;-43
2023/06/06 10:37:21;;;;;;;;;21.40;20.00;;;;;34.14;26.63;101351.47;4956013;28;45631;-44
2023/06/06 10:39:58;;;;;;;;;22.20;18.20;;;;;34.15;26.00;101349.53;4955799;28;47060;-45
2023/06/06 10:42:34;;;;;;;;;20.20;17.60;;;;;34.12;26.63;101347.34;4955610;28;45471;-44
2023/06/06 10:45:00;;;;;;;;;16.20;15.60;;;;;34.11;26.00;101337.41;4955847;28;45732;-44
2023/06/06 10:47:32;;;;;;;;;17.75;15.50;;;;;34.13;26.37;101332.41;4955780;28;45529;-45
2023/06/06 10:50:10;;;;;;;;;16.80;14.80;;;;;33.91;25.92;101343.91;4955206;28;46300;-46
2023/06/06 10:52:51;;;;;;;;;20.20;16.40;;;;;33.50;26.37;101336.78;4955481;28;45852;-45
2023/06/06 10:55:38;;;;;;;;;25.20;18.60;;;;;33.13;26.70;101342.75;4955466;28;45491;-43
2023/06/06 10:58:13;;;;;;;;;19.60;15.20;;;;;32.69;27.68;101340.69;4955813;28;45410;-45
2023/06/06 11:00:41;;;;;;;;;17.40;17.20;;;;;32.19;27.62;101328.66;4955477;28;47171;-43
2023/06/06 11:03:09;;;;;;;;;22.20;17.20;;;;;31.76;28.42;101333.59;4955515;28;45341;-44
2023/06/06 11:06:12;;;;;;;;;16.00;15.80;;;;;31.39;29.02;101325.56;4955336;28;45293;-44
2023/06/06 11:08:42;;;;;;;;;19.60;18.60;;;;;31.06;28.93;101327.66;4994504;28;45474;-47
2023/06/06 11:11:18;;;;;;;;;15.60;15.60;;;;;30.88;29.87;101328.13;5018774;28;47105;-44
2023/06/06 11:13:58;;;;;;;;;19.80;18.20;;;;;30.68;30.17;101328.03;5036128;28;45482;-43